Time;durP1;ratioP1;P1;durP2;ratioP2;P2;SDS_P1;SDS_P2;PMS_P1;PMS_P2;Temp;Humidity;BMP_temperature;BMP_pressure;BME280_temperature;BME280_humidity;BME280_pressure;Samples;Min_cycle;Max_cycle;Signal;HPM_P1;HPM_P2
2024/01/11 00:00:39;;;;;;;40.43;20.73;;;1.90;70.50;-0.10;97159.00;;;;5073747;28;20442;-76
2024/01/11 00:03:06;;;;;;;41.53;19.70;;;2.00;70.50;-0.10;97159.00;;;;5073424;28;20517;-76
2024/01/11 00:05:33;;;;;;;44.37;20.47;;;2.00;70.40;-0.10;97156.00;;;;5071523;28;20477;-76
2024/01/11 00:08:01;;;;;;;39.60;20.13;;;2.00;70.20;-0.10;97158.00;;;;5071978;28;20459;-76
2024/01/11 00:10:29;;;;;;;36.07;19.67;;;2.00;70.00;-0.10;97152.00;;;;5073535;28;20751;-76
2024/01/11 00:12:56;;;;;;;39.23;20.07;;;2.00;70.00;-0.10;97155.00;;;;5072921;28;20546;-76
2024/01/11 00:15:24;;;;;;;32.97;18.17;;;2.00;70.00;-0.10;97153.00;;;;5071612;28;20442;-76
2024/01/11 00:17:51;;;;;;;38.20;19.07;;;2.00;70.00;-0.10;97161.00;;;;5067923;28;20537;-76
2024/01/11 00:20:21;;;;;;;43.97;20.50;;;2.00;70.00;-0.10;97159.00;;;;5073348;28;20489;-76
2024/01/11 00:22:48;;;;;;;40.20;19.57;;;2.00;69.90;-0.20;97158.00;;;;5067977;28;20481;-76
2024/01/11 00:25:17;;;;;;;40.13;19.53;;;2.00;69.60;-0.20;97153.00;;;;5070276;28;20597;-76
2024/01/11 00:27:44;;;;;;;42.57;20.03;;;2.00;69.60;-0.20;97159.00;;;;5072582;28;20478;-76
2024/01/11 00:30:12;;;;;;;37.17;18.37;;;2.00;69.50;-0.20;97158.00;;;;5079457;28;20568;-76
2024/01/11 00:32:39;;;;;;;38.03;19.60;;;2.00;69.60;-0.20;97161.00;;;;5074079;28;20486;-76
2024/01/11 00:35:07;;;;;;;41.57;19.13;;;2.00;69.80;-0.20;97162.00;;;;5072113;28;20461;-76
2024/01/11 00:37:34;;;;;;;37.10;19.40;;;1.90;69.70;-0.30;97163.00;;;;5070880;28;20533;-76
2024/01/11 00:40:01;;;;;;;32.77;18.00;;;1.90;69.70;-0.20;97163.00;;;;5072255;28;20505;-76
2024/01/11 00:42:30;;;;;;;36.17;18.27;;;1.90;69.70;-0.20;97162.00;;;;5077547;28;20462;-76
2024/01/11 00:44:57;;;;;;;34.77;17.80;;;1.90;69.80;-0.20;97162.00;;;;5069357;28;20594;-76
2024/01/11 00:47:24;;;;;;;37.50;18.70;;;1.90;70.00;-0.20;97165.00;;;;5070111;28;20450;-76
2024/01/11 00:49:52;;;;;;;35.33;18.13;;;1.90;70.10;-0.20;97168.00;;;;5076767;28;20549;-76
2024/01/11 00:52:19;;;;;;;37.27;19.70;;;1.90;69.90;-0.20;97169.00;;;;5071401;28;20446;-76
2024/01/11 00:54:46;;;;;;;34.17;18.00;;;1.90;70.00;-0.20;97170.00;;;;5070160;28;20523;-76
2024/01/11 00:57:14;;;;;;;34.03;17.73;;;1.90;70.00;-0.20;97164.00;;;;5071138;28;20517;-76
2024/01/11 00:59:42;;;;;;;33.50;18.10;;;1.90;70.00;-0.20;97164.00;;;;5078333;28;20553;-76
2024/01/11 01:02:09;;;;;;;32.87;17.97;;;1.90;69.80;-0.20;97170.00;;;;5072675;28;20519;-76
2024/01/11 01:04:40;;;;;;;35.33;18.43;;;1.90;69.60;-0.20;97162.00;;;;5070497;28;20529;-76
2024/01/11 01:07:07;;;;;;;37.43;18.87;;;1.90;69.50;-0.20;97163.00;;;;5069367;28;20438;-75
2024/01/11 01:09:35;;;;;;;36.80;19.30;;;1.90;69.70;-0.20;97162.00;;;;5077806;28;20466;-76
2024/01/11 01:12:02;;;;;;;35.90;18.73;;;1.90;69.80;-0.20;97167.00;;;;5071525;28;20454;-76
2024/01/11 01:14:30;;;;;;;39.17;19.30;;;1.90;69.80;-0.20;97169.00;;;;5069259;28;20450;-76
2024/01/11 01:16:58;;;;;;;36.43;19.30;;;1.90;69.70;-0.20;97168.00;;;;5071690;28;20534;-76
2024/01/11 01:19:25;;;;;;;41.30;20.57;;;1.90;69.40;-0.20;97169.00;;;;5072489;28;20551;-76
2024/01/11 01:21:53;;;;;;;39.97;19.50;;;1.90;69.20;-0.30;97171.00;;;;5072459;28;20889;-76
2024/01/11 01:24:20;;;;;;;39.73;20.10;;;1.90;69.00;-0.30;97172.00;;;;5072026;28;20525;-76
2024/01/11 01:26:47;;;;;;;39.43;19.27;;;1.90;69.10;-0.30;97180.00;;;;5072499;28;20546;-76
2024/01/11 01:29:15;;;;;;;37.57;19.73;;;1.90;69.10;-0.40;97187.00;;;;5075170;28;21076;-76
2024/01/11 01:31:42;;;;;;;38.30;18.67;;;1.80;68.90;-0.40;97183.00;;;;5071046;28;21085;-76
2024/01/11 01:34:10;;;;;;;40.57;20.57;;;1.80;69.60;-0.50;97172.00;;;;5068348;28;20935;-76
2024/01/11 01:36:38;;;;;;;39.17;19.57;;;1.80;68.90;-0.50;97176.00;;;;5068872;28;20438;-76
2024/01/11 01:39:05;;;;;;;38.83;19.10;;;1.70;69.00;-0.50;97183.00;;;;5069128;28;20481;-76
2024/01/11 01:41:33;;;;;;;38.27;19.87;;;1.80;69.40;-0.50;97183.00;;;;5068849;28;20476;-75
2024/01/11 01:44:00;;;;;;;37.93;19.30;;;1.70;69.60;-0.50;97183.00;;;;5068339;28;20497;-76
2024/01/11 01:46:29;;;;;;;38.70;19.10;;;1.70;69.70;-0.50;97177.00;;;;5069140;28;20558;-76
2024/01/11 01:49:00;;;;;;;38.90;19.17;;;1.70;69.70;-0.50;97185.00;;;;5073040;28;20998;-76
2024/01/11 01:51:32;;;;;;;38.10;18.93;;;1.70;69.60;-0.40;97178.00;;;;5071480;28;20906;-76
2024/01/11 01:54:01;;;;;;;36.90;18.73;;;1.70;69.60;-0.40;97180.00;;;;5074357;28;20527;-76
2024/01/11 01:56:28;;;;;;;36.47;19.03;;;1.70;69.70;-0.40;97183.00;;;;5071331;28;20477;-76
2024/01/11 01:58:56;;;;;;;40.67;19.83;;;1.80;69.90;-0.40;97183.00;;;;5070892;28;20465;-76
2024/01/11 02:01:24;;;;;;;39.33;20.07;;;1.80;69.90;-0.40;97181.00;;;;5070708;28;21006;-76
2024/01/11 02:03:54;;;;;;;38.40;20.03;;;1.80;69.60;-0.40;97179.00;;;;5072537;28;20474;-76
2024/01/11 02:06:29;;;;;;;37.43;19.63;;;1.80;69.60;-0.40;97178.00;;;;5066938;28;20529;-75
2024/01/11 02:08:57;;;;;;;40.33;20.57;;;1.70;69.50;-0.40;97180.00;;;;5076153;28;20450;-75
2024/01/11 02:11:25;;;;;;;36.93;18.97;;;1.70;69.40;-0.50;97166.00;;;;5069993;28;21018;-76
2024/01/11 02:13:53;;;;;;;34.60;19.00;;;1.70;69.30;-0.50;97171.00;;;;5075951;28;20462;-75
2024/01/11 02:16:20;;;;;;;37.07;19.43;;;1.70;69.20;-0.50;97171.00;;;;5075904;28;21352;-75
2024/01/11 02:18:48;;;;;;;37.87;19.83;;;1.70;69.10;-0.60;97172.00;;;;5075123;28;20999;-75
2024/01/11 02:21:18;;;;;;;34.40;19.03;;;1.70;69.20;-0.60;97175.00;;;;5069609;28;20478;-76
2024/01/11 02:24:07;;;;;;;37.87;19.03;;;1.60;69.20;-0.60;97172.00;;;;5070259;28;20469;-76
2024/01/11 02:26:35;;;;;;;37.83;19.43;;;1.60;69.40;-0.60;97172.00;;;;5069373;28;20488;-76
2024/01/11 02:29:03;;;;;;;38.97;19.33;;;1.60;69.50;-0.60;97172.00;;;;5073741;28;20466;-76
2024/01/11 02:31:30;;;;;;;36.53;19.30;;;1.60;69.60;-0.60;97168.00;;;;5073171;28;21048;-76
2024/01/11 02:33:58;;;;;;;35.33;18.63;;;1.60;69.50;-0.60;97176.00;;;;5073242;28;20538;-76
2024/01/11 02:36:27;;;;;;;35.50;18.57;;;1.60;69.40;-0.60;97176.00;;;;5068579;28;20446;-75
2024/01/11 02:38:56;;;;;;;36.23;18.80;;;1.60;69.30;-0.70;97176.00;;;;5069439;28;20477;-76
2024/01/11 02:41:25;;;;;;;32.00;17.87;;;1.60;69.30;-0.70;97175.00;;;;5067758;28;20492;-76
2024/01/11 02:43:55;;;;;;;41.43;19.53;;;1.60;69.20;-0.70;97180.00;;;;5068556;28;20470;-76
2024/01/11 02:46:22;;;;;;;34.73;18.13;;;1.60;69.20;-0.80;97174.00;;;;5068046;28;20869;-76
2024/01/11 02:48:49;;;;;;;42.80;21.27;;;1.50;69.10;-0.80;97171.00;;;;5075773;28;20515;-76
2024/01/11 02:51:16;;;;;;;38.03;19.27;;;1.50;69.30;-0.70;97174.00;;;;5071253;28;20508;-75
2024/01/11 02:53:43;;;;;;;38.47;18.67;;;1.50;69.50;-0.70;97163.00;;;;5070166;28;20478;-76
2024/01/11 02:56:12;;;;;;;40.23;18.63;;;1.50;69.70;-0.70;97172.00;;;;5069153;28;20585;-76
2024/01/11 02:58:40;;;;;;;35.67;17.70;;;1.50;69.80;-0.70;97172.00;;;;5071476;28;20493;-76
2024/01/11 03:01:07;;;;;;;37.67;19.83;;;1.50;69.70;-0.70;97161.00;;;;5071022;28;20446;-76
2024/01/11 03:03:35;;;;;;;39.77;20.53;;;1.50;69.80;-0.70;97166.00;;;;5071158;28;20824;-76
2024/01/11 03:06:03;;;;;;;38.27;17.93;;;1.50;69.80;-0.70;97159.00;;;;5070260;28;20828;-76
2024/01/11 03:08:30;;;;;;;38.93;20.00;;;1.50;69.90;-0.70;97154.00;;;;5071242;28;20553;-76
2024/01/11 03:10:57;;;;;;;43.03;20.60;;;1.50;69.90;-0.60;97159.00;;;;5075229;28;20680;-76
2024/01/11 03:13:26;;;;;;;39.97;18.87;;;1.50;69.90;-0.60;97149.00;;;;5069919;28;20478;-76
2024/01/11 03:15:53;;;;;;;36.37;18.80;;;1.50;69.80;-0.60;97142.00;;;;5069398;28;20834;-76
2024/01/11 03:18:21;;;;;;;40.27;20.13;;;1.60;69.90;-0.60;97152.00;;;;5070590;28;20664;-76
2024/01/11 03:20:48;;;;;;;38.87;19.80;;;1.60;69.90;-0.60;97141.00;;;;5071167;28;20477;-76
2024/01/11 03:23:15;;;;;;;41.10;20.03;;;1.60;69.90;-0.60;97140.00;;;;5070080;28;20537;-75
2024/01/11 03:25:42;;;;;;;37.80;19.37;;;1.60;69.90;-0.60;97134.00;;;;5065044;28;20529;-76
2024/01/11 03:28:09;;;;;;;49.93;20.67;;;1.60;69.80;-0.60;97136.00;;;;5067072;28;20537;-76
2024/01/11 03:30:38;;;;;;;40.30;20.13;;;1.60;69.50;-0.60;97133.00;;;;5069849;28;21072;-75
2024/01/11 03:33:05;;;;;;;39.17;19.60;;;1.60;69.20;-0.60;97132.00;;;;5066079;28;20538;-76
2024/01/11 03:35:32;;;;;;;43.80;20.17;;;1.60;69.30;-0.60;97125.00;;;;5069201;28;20618;-76
2024/01/11 03:37:59;;;;;;;40.70;20.53;;;1.60;69.40;-0.60;97123.00;;;;5070330;28;20450;-76
2024/01/11 03:40:27;;;;;;;40.53;21.00;;;1.60;69.40;-0.60;97120.00;;;;5070217;28;20473;-76
2024/01/11 03:42:54;;;;;;;36.03;18.83;;;1.60;69.40;-0.60;97124.00;;;;5074343;28;20456;-76
2024/01/11 03:45:21;;;;;;;43.17;20.97;;;1.60;69.50;-0.60;97122.00;;;;5069526;28;20497;-75
2024/01/11 03:47:50;;;;;;;38.93;20.00;;;1.60;69.50;-0.60;97121.00;;;;5071111;28;20454;-76
2024/01/11 03:50:18;;;;;;;40.67;21.07;;;1.60;69.50;-0.60;97125.00;;;;5070786;28;20474;-76
2024/01/11 03:52:46;;;;;;;43.80;19.90;;;1.60;69.50;-0.60;97124.00;;;;5065273;28;20449;-76
2024/01/11 03:55:13;;;;;;;40.57;20.27;;;1.60;69.40;-0.70;97129.00;;;;5069104;28;20453;-76
2024/01/11 03:57:40;;;;;;;41.77;21.37;;;1.50;69.10;-0.70;97129.00;;;;5069614;28;20442;-76
2024/01/11 04:00:10;;;;;;;39.33;20.17;;;1.50;69.00;-0.70;97128.00;;;;5072938;28;20549;-76
2024/01/11 04:02:37;;;;;;;36.30;18.73;;;1.50;68.80;-0.80;97135.00;;;;5073794;28;20478;-76
2024/01/11 04:05:07;;;;;;;38.83;20.80;;;1.50;68.70;-0.80;97134.00;;;;5072636;28;20503;-76
2024/01/11 04:07:34;;;;;;;42.83;20.70;;;1.40;68.70;-0.90;97130.00;;;;5073118;28;20485;-76
2024/01/11 04:10:01;;;;;;;43.30;21.53;;;1.40;69.20;-0.90;97135.00;;;;5073728;28;20501;-76
2024/01/11 04:12:28;;;;;;;34.57;18.73;;;1.40;68.40;-1.00;97132.00;;;;5073376;28;20542;-75
2024/01/11 04:14:56;;;;;;;35.77;19.70;;;1.30;68.30;-1.00;97136.00;;;;5072192;28;20521;-75
2024/01/11 04:17:23;;;;;;;36.00;18.40;;;1.30;68.50;-1.10;97143.00;;;;5074020;28;20565;-75
2024/01/11 04:19:51;;;;;;;35.33;18.30;;;1.20;68.70;-1.10;97141.00;;;;5071403;28;20462;-76
2024/01/11 04:22:20;;;;;;;38.80;18.87;;;1.20;68.90;-1.10;97130.00;;;;5071755;28;20481;-76
2024/01/11 04:24:47;;;;;;;40.93;19.53;;;1.20;69.10;-1.10;97129.00;;;;5068869;28;20463;-76
2024/01/11 04:27:16;;;;;;;39.10;20.20;;;1.20;69.10;-1.00;97138.00;;;;5065260;28;20968;-76
2024/01/11 04:29:43;;;;;;;39.27;19.53;;;1.20;69.10;-1.00;97143.00;;;;5064714;28;20477;-75
2024/01/11 04:32:12;;;;;;;38.10;19.23;;;1.20;69.30;-1.00;97139.00;;;;5072520;28;20537;-76
2024/01/11 04:34:39;;;;;;;38.53;18.93;;;1.20;69.50;-1.00;97136.00;;;;5069240;28;20466;-76
2024/01/11 04:37:07;;;;;;;40.03;19.00;;;1.20;69.50;-1.00;97137.00;;;;5067834;28;20469;-76
2024/01/11 04:39:35;;;;;;;38.33;18.50;;;1.30;69.50;-1.00;97144.00;;;;5071468;28;20494;-75
2024/01/11 04:42:03;;;;;;;40.93;20.57;;;1.30;69.40;-1.00;97134.00;;;;5072782;28;20466;-75
2024/01/11 04:44:30;;;;;;;38.77;20.07;;;1.30;69.40;-1.00;97136.00;;;;5071768;28;20511;-76
2024/01/11 04:46:59;;;;;;;35.13;19.60;;;1.30;68.90;-1.00;97139.00;;;;5072999;28;20439;-76
2024/01/11 04:49:26;;;;;;;37.23;19.23;;;1.30;68.80;-1.00;97131.00;;;;5080012;28;20527;-76
2024/01/11 04:51:53;;;;;;;40.10;19.37;;;1.30;68.90;-1.00;97125.00;;;;5072072;28;20558;-75
2024/01/11 04:54:21;;;;;;;36.10;19.80;;;1.30;69.00;-1.00;97132.00;;;;5072369;28;20449;-75
2024/01/11 04:56:49;;;;;;;37.50;18.27;;;1.30;68.90;-1.00;97148.00;;;;5073726;28;20526;-75
2024/01/11 04:59:16;;;;;;;39.17;20.20;;;1.30;69.00;-1.00;97141.00;;;;5073496;28;20932;-76
2024/01/11 05:01:44;;;;;;;37.67;20.13;;;1.30;68.80;-1.00;97147.00;;;;5077035;28;20485;-75
2024/01/11 05:04:11;;;;;;;37.90;19.17;;;1.30;68.60;-1.00;97145.00;;;;5084756;28;20441;-75
2024/01/11 05:06:38;;;;;;;37.90;19.50;;;1.30;68.30;-1.10;97144.00;;;;5079502;28;20518;-75
2024/01/11 05:09:05;;;;;;;33.67;18.97;;;1.20;68.00;-1.20;97144.00;;;;5078324;28;20458;-75
2024/01/11 05:11:33;;;;;;;42.77;20.77;;;1.20;68.00;-1.20;97141.00;;;;5067331;28;20481;-75
2024/01/11 05:14:01;;;;;;;35.53;18.63;;;1.10;68.10;-1.20;97131.00;;;;5054472;28;20438;-75
2024/01/11 05:16:29;;;;;;;40.27;19.57;;;1.10;68.10;-1.30;97134.00;;;;5072215;28;20438;-75
2024/01/11 05:18:59;;;;;;;45.10;21.43;;;1.00;68.30;-1.30;97126.00;;;;5073954;28;20461;-75
2024/01/11 05:21:27;;;;;;;41.87;20.60;;;1.00;68.30;-1.30;97122.00;;;;5071118;28;20495;-75
2024/01/11 05:23:54;;;;;;;44.30;20.87;;;1.00;68.20;-1.40;97118.00;;;;5070775;28;20916;-75
2024/01/11 05:26:21;;;;;;;35.17;19.70;;;0.90;68.30;-1.40;97126.00;;;;5070205;28;20504;-75
2024/01/11 05:28:49;;;;;;;40.50;20.00;;;0.90;68.20;-1.40;97120.00;;;;5070769;28;20497;-75
2024/01/11 05:31:18;;;;;;;44.17;20.80;;;0.90;68.40;-1.40;97123.00;;;;5071166;28;20543;-75
2024/01/11 05:33:45;;;;;;;38.40;20.13;;;0.90;69.30;-1.40;97129.00;;;;5071956;28;20954;-75
2024/01/11 05:36:13;;;;;;;40.10;21.10;;;0.90;68.80;-1.40;97128.00;;;;5072277;28;20446;-75
2024/01/11 05:38:41;;;;;;;40.00;20.33;;;0.90;68.80;-1.40;97135.00;;;;5072493;28;20501;-76
2024/01/11 05:41:08;;;;;;;37.63;20.87;;;0.90;68.70;-1.40;97130.00;;;;5071299;28;20477;-76
2024/01/11 05:43:36;;;;;;;42.33;20.57;;;0.90;68.70;-1.40;97130.00;;;;5071132;28;20443;-76
2024/01/11 05:46:03;;;;;;;38.40;20.17;;;0.80;68.70;-1.40;97149.00;;;;5075528;28;20542;-75
2024/01/11 05:48:33;;;;;;;39.80;19.60;;;0.90;68.90;-1.40;97150.00;;;;5064385;28;20470;-75
2024/01/11 05:51:01;;;;;;;33.83;18.93;;;0.90;69.10;-1.40;97155.00;;;;5067811;28;20565;-75
2024/01/11 05:53:28;;;;;;;38.10;19.67;;;0.90;68.90;-1.40;97157.00;;;;5071902;28;20473;-75
2024/01/11 05:55:56;;;;;;;37.63;19.43;;;0.90;68.90;-1.40;97166.00;;;;5068957;28;20442;-75
2024/01/11 05:58:23;;;;;;;38.43;20.57;;;0.90;68.70;-1.40;97166.00;;;;5071770;28;20462;-75
2024/01/11 06:00:50;;;;;;;39.10;19.80;;;0.90;68.60;-1.40;97167.00;;;;5072688;28;20451;-75
2024/01/11 06:03:17;;;;;;;39.53;19.67;;;0.90;68.90;-1.40;97163.00;;;;5069209;28;20473;-75
2024/01/11 06:05:46;;;;;;;34.77;18.83;;;0.90;68.80;-1.40;97156.00;;;;5069895;28;20443;-75
2024/01/11 06:08:13;;;;;;;39.10;19.20;;;0.90;68.80;-1.40;97163.00;;;;5072336;28;20825;-75
2024/01/11 06:10:41;;;;;;;40.47;19.63;;;0.90;68.70;-1.40;97160.00;;;;5065288;28;20471;-76
2024/01/11 06:13:09;;;;;;;39.57;19.70;;;0.90;68.20;-1.40;97159.00;;;;5066682;28;20804;-75
2024/01/11 06:15:36;;;;;;;39.47;20.37;;;0.90;68.90;-1.40;97171.00;;;;5070558;28;20427;-75
2024/01/11 06:18:05;;;;;;;36.27;18.63;;;0.90;68.40;-1.40;97175.00;;;;5069790;28;20476;-75
2024/01/11 06:20:32;;;;;;;39.30;19.40;;;0.90;68.50;-1.40;97173.00;;;;5060165;28;20446;-75
2024/01/11 06:23:01;;;;;;;35.60;18.63;;;0.80;68.50;-1.40;97177.00;;;;5070619;28;20434;-75
2024/01/11 06:25:28;;;;;;;35.40;19.73;;;0.80;68.60;-1.40;97179.00;;;;5069201;28;20982;-76
2024/01/11 06:27:55;;;;;;;39.97;19.90;;;0.90;68.50;-1.40;97181.00;;;;5069753;28;20546;-75
2024/01/11 06:30:23;;;;;;;35.50;17.97;;;0.80;68.10;-1.50;97184.00;;;;5069823;28;21225;-75
2024/01/11 06:32:50;;;;;;;37.03;18.03;;;0.80;68.00;-1.50;97183.00;;;;5071240;28;20499;-75
2024/01/11 06:35:17;;;;;;;35.33;19.10;;;0.80;68.60;-1.50;97182.00;;;;5071419;28;20529;-75
2024/01/11 06:37:45;;;;;;;36.83;19.17;;;0.80;68.00;-1.60;97187.00;;;;5070902;28;21026;-75
2024/01/11 06:40:13;;;;;;;36.67;18.77;;;0.70;68.20;-1.60;97179.00;;;;5070644;28;20497;-76
2024/01/11 06:42:41;;;;;;;37.20;18.93;;;0.80;68.20;-1.60;97186.00;;;;5071543;28;20446;-76
2024/01/11 06:45:10;;;;;;;35.33;18.50;;;0.80;68.30;-1.60;97190.00;;;;5062972;28;20533;-76
2024/01/11 06:47:38;;;;;;;36.57;17.90;;;0.70;68.20;-1.60;97201.00;;;;5070147;28;20450;-76
2024/01/11 06:50:08;;;;;;;38.50;19.60;;;0.70;68.20;-1.60;97212.00;;;;5071372;28;20568;-76
2024/01/11 06:52:35;;;;;;;39.47;20.30;;;0.80;68.30;-1.60;97213.00;;;;5071237;28;20466;-76
2024/01/11 06:55:03;;;;;;;36.13;18.57;;;0.80;69.10;-1.50;97209.00;;;;5071359;28;20484;-76
2024/01/11 06:57:31;;;;;;;41.10;20.33;;;0.80;68.50;-1.40;97200.00;;;;5071355;28;20533;-76
2024/01/11 06:59:58;;;;;;;43.43;21.27;;;0.90;68.50;-1.40;97208.00;;;;5071460;28;20486;-76
2024/01/11 07:02:26;;;;;;;42.70;21.30;;;0.90;68.50;-1.40;97195.00;;;;5063103;28;20466;-76
2024/01/11 07:04:53;;;;;;;37.33;18.60;;;0.90;68.90;-1.40;97186.00;;;;5068939;28;20461;-76
2024/01/11 07:07:20;;;;;;;40.67;20.53;;;1.00;68.10;-1.40;97186.00;;;;5070075;28;21002;-75
2024/01/11 07:09:48;;;;;;;37.63;18.90;;;1.00;68.70;-1.40;97182.00;;;;5069296;28;20489;-76
2024/01/11 07:12:15;;;;;;;37.00;18.30;;;1.00;67.60;-1.50;97176.00;;;;5069345;28;20485;-76
2024/01/11 07:14:44;;;;;;;41.47;19.93;;;1.00;67.30;-1.60;97176.00;;;;5069140;28;20863;-76
2024/01/11 07:17:11;;;;;;;38.37;20.20;;;0.90;67.50;-1.70;97183.00;;;;5068891;28;20474;-76
2024/01/11 07:19:38;;;;;;;37.20;18.20;;;0.90;66.60;-1.70;97186.00;;;;5069399;28;20808;-76
2024/01/11 07:22:07;;;;;;;37.60;17.70;;;0.80;66.50;-1.80;97187.00;;;;5069820;28;20532;-75
2024/01/11 07:24:37;;;;;;;30.70;16.23;;;0.80;66.80;-1.80;97194.00;;;;5063613;28;20446;-76
2024/01/11 07:27:05;;;;;;;34.70;17.47;;;0.80;66.60;-1.90;97209.00;;;;5071078;28;20454;-76
2024/01/11 07:29:33;;;;;;;34.40;16.93;;;0.70;66.30;-2.00;97204.00;;;;5070854;28;20839;-76
2024/01/11 07:32:03;;;;;;;35.17;17.60;;;0.60;66.10;-2.10;97210.00;;;;5066800;28;20497;-76
2024/01/11 07:34:31;;;;;;;32.13;16.53;;;0.60;66.50;-2.10;97212.00;;;;5073871;28;20438;-76
2024/01/11 07:36:58;;;;;;;33.57;16.80;;;0.50;66.90;-2.10;97207.00;;;;5073759;28;20450;-76
2024/01/11 07:39:25;;;;;;;30.57;16.03;;;0.50;68.00;-2.10;97201.00;;;;5074020;28;20470;-76
2024/01/11 07:41:53;;;;;;;33.17;17.23;;;0.50;67.40;-2.10;97221.00;;;;5074805;28;20487;-75
2024/01/11 07:44:21;;;;;;;32.73;17.33;;;0.50;67.50;-2.10;97211.00;;;;5073472;28;20473;-75
2024/01/11 07:46:48;;;;;;;31.07;17.70;;;0.40;67.50;-2.20;97219.00;;;;5074823;28;20446;-75
2024/01/11 07:49:17;;;;;;;33.63;17.87;;;0.40;67.40;-2.30;97220.00;;;;5074876;28;20520;-75
2024/01/11 07:51:45;;;;;;;27.07;16.50;;;0.40;67.00;-2.30;97231.00;;;;5074735;28;20561;-75
2024/01/11 07:54:12;;;;;;;30.13;16.50;;;0.30;66.80;-2.40;97239.00;;;;5076959;28;20468;-75
2024/01/11 07:56:40;;;;;;;34.20;16.70;;;0.30;67.00;-2.40;97243.00;;;;5082768;28;20438;-75
2024/01/11 07:59:07;;;;;;;29.73;16.87;;;0.30;67.50;-2.30;97238.00;;;;5081316;28;21036;-75
2024/01/11 08:01:35;;;;;;;27.07;16.47;;;0.30;67.70;-2.30;97238.00;;;;5081447;28;20454;-75
2024/01/11 08:04:03;;;;;;;29.97;17.17;;;0.30;67.60;-2.30;97245.00;;;;5079296;28;20480;-75
2024/01/11 08:06:32;;;;;;;33.07;17.97;;;0.20;67.50;-2.30;97253.00;;;;5068304;28;20442;-75
2024/01/11 08:08:59;;;;;;;31.33;16.83;;;0.30;68.10;-2.20;97260.00;;;;5072287;28;20490;-76
2024/01/11 08:11:26;;;;;;;34.83;18.27;;;0.30;68.40;-2.10;97273.00;;;;5071766;28;20543;-75
2024/01/11 08:13:55;;;;;;;31.90;17.73;;;0.30;68.60;-2.00;97287.00;;;;5071805;28;20733;-76
2024/01/11 08:16:23;;;;;;;36.13;18.63;;;0.30;69.60;-2.00;97295.00;;;;5072101;28;20442;-76
2024/01/11 08:18:51;;;;;;;36.57;19.00;;;0.40;68.90;-1.90;97306.00;;;;5073198;28;20474;-75
2024/01/11 08:21:19;;;;;;;32.40;18.07;;;0.50;68.70;-1.90;97277.00;;;;5073985;28;20454;-77
2024/01/11 08:23:48;;;;;;;39.67;18.93;;;0.50;68.80;-1.80;97273.00;;;;5074213;28;20456;-76
2024/01/11 08:26:22;;;;;;;36.93;19.63;;;0.50;68.80;-1.80;97279.00;;;;5072377;28;20454;-77
2024/01/11 08:28:50;;;;;;;40.10;21.13;;;0.60;68.70;-1.70;97285.00;;;;5073710;28;20476;-76
2024/01/11 08:31:17;;;;;;;33.07;19.30;;;0.60;68.60;-1.70;97295.00;;;;5073313;28;20442;-74
2024/01/11 08:33:45;;;;;;;39.77;19.73;;;0.70;68.40;-1.70;97302.00;;;;5073902;28;20995;-76
2024/01/11 08:36:12;;;;;;;37.07;19.43;;;0.70;68.40;-1.70;97304.00;;;;5073378;28;20434;-75
2024/01/11 08:38:41;;;;;;;36.13;19.43;;;0.70;68.50;-1.60;97300.00;;;;5074147;28;20572;-75
2024/01/11 08:41:10;;;;;;;38.30;21.10;;;0.70;68.70;-1.60;97303.00;;;;5072513;28;20920;-75
2024/01/11 08:43:39;;;;;;;41.87;21.60;;;0.80;69.00;-1.50;97303.00;;;;5073553;28;20959;-75
2024/01/11 08:46:06;;;;;;;43.00;22.83;;;0.80;69.10;-1.40;97302.00;;;;5072567;28;20442;-75
2024/01/11 08:48:33;;;;;;;37.97;20.23;;;0.90;69.30;-1.30;97312.00;;;;5065983;28;20450;-75
2024/01/11 08:51:00;;;;;;;40.73;20.83;;;0.90;69.30;-1.20;97303.00;;;;5073321;28;20453;-75
2024/01/11 08:53:27;;;;;;;35.57;18.97;;;1.00;69.40;-1.10;97315.00;;;;5072848;28;20561;-75
2024/01/11 08:55:55;;;;;;;37.17;20.47;;;1.10;69.50;-1.10;97303.00;;;;5072775;28;20470;-75
2024/01/11 08:58:24;;;;;;;38.50;20.27;;;1.20;69.30;-1.00;97303.00;;;;5072656;28;21066;-76
2024/01/11 09:00:51;;;;;;;41.30;21.33;;;1.20;69.10;-1.00;97299.00;;;;5071145;28;20930;-75
2024/01/11 09:03:18;;;;;;;38.87;21.63;;;1.30;69.20;-0.90;97295.00;;;;5068494;28;20443;-75
2024/01/11 09:05:45;;;;;;;40.30;22.00;;;1.30;69.00;-0.90;97288.00;;;;5071235;28;20790;-75
2024/01/11 09:08:12;;;;;;;39.57;21.27;;;1.40;69.00;-0.80;97286.00;;;;5070754;28;20529;-75
2024/01/11 09:10:41;;;;;;;39.77;20.67;;;1.40;69.10;-0.80;97293.00;;;;5070983;28;20541;-75
2024/01/11 09:13:09;;;;;;;40.20;21.03;;;1.50;69.20;-0.80;97290.00;;;;5070801;28;20466;-74
2024/01/11 09:15:37;;;;;;;40.80;20.60;;;1.50;68.70;-0.90;97292.00;;;;5072160;28;20435;-75
2024/01/11 09:18:05;;;;;;;38.17;20.00;;;1.50;68.20;-0.90;97284.00;;;;5072923;28;20454;-74
2024/01/11 09:20:33;;;;;;;37.93;21.23;;;1.50;67.90;-0.90;97292.00;;;;5062024;28;20457;-75
2024/01/11 09:23:03;;;;;;;39.13;22.60;;;1.50;68.10;-0.90;97292.00;;;;5068859;28;20464;-77
2024/01/11 09:25:31;;;;;;;37.27;21.87;;;1.50;68.10;-0.90;97298.00;;;;5072542;28;20446;-76
2024/01/11 09:27:58;;;;;;;36.40;20.13;;;1.50;68.20;-0.90;97300.00;;;;5072822;28;20478;-75
2024/01/11 09:30:25;;;;;;;42.37;21.20;;;1.50;68.30;-0.90;97293.00;;;;5072062;28;20526;-75
2024/01/11 09:32:55;;;;;;;39.60;21.03;;;1.50;68.40;-0.80;97281.00;;;;5071425;28;20450;-76
2024/01/11 09:35:24;;;;;;;37.27;20.73;;;1.60;68.50;-0.80;97290.00;;;;5071129;28;20982;-75
2024/01/11 09:37:52;;;;;;;39.13;21.63;;;1.60;68.40;-0.80;97309.00;;;;5072599;28;20460;-75
2024/01/11 09:40:20;;;;;;;40.60;21.23;;;1.60;68.20;-0.80;97301.00;;;;5071853;28;20524;-76
2024/01/11 09:42:48;;;;;;;42.20;21.90;;;1.60;68.20;-0.80;97301.00;;;;5072228;28;20442;-75
2024/01/11 09:45:17;;;;;;;41.40;21.53;;;1.60;68.40;-0.70;97301.00;;;;5071020;28;20446;-74
2024/01/11 09:47:46;;;;;;;43.17;21.07;;;1.70;68.40;-0.70;97294.00;;;;5071856;28;20476;-75
2024/01/11 09:50:17;;;;;;;45.07;21.93;;;1.70;68.30;-0.60;97291.00;;;;5070857;28;20461;-75
2024/01/11 09:52:48;;;;;;;43.40;22.10;;;1.80;68.50;-0.50;97290.00;;;;5064448;28;20473;-75
2024/01/11 09:55:16;;;;;;;42.23;22.10;;;1.80;68.30;-0.50;97286.00;;;;5069387;28;20963;-75
2024/01/11 09:57:47;;;;;;;38.20;21.37;;;1.80;68.50;-0.50;97281.00;;;;5070147;28;20450;-75
2024/01/11 10:00:18;;;;;;;44.53;21.33;;;1.90;69.00;-0.50;97288.00;;;;5069887;28;20497;-75
2024/01/11 10:02:46;;;;;;;40.07;20.80;;;1.90;68.00;-0.50;97281.00;;;;5070115;28;20450;-75
2024/01/11 10:05:16;;;;;;;38.50;21.77;;;1.90;68.00;-0.50;97287.00;;;;5069641;28;20533;-75
2024/01/11 10:07:43;;;;;;;42.27;22.37;;;1.90;67.70;-0.60;97286.00;;;;5069828;28;20442;-75
2024/01/11 10:10:12;;;;;;;37.97;20.13;;;1.90;67.30;-0.60;97276.00;;;;5070676;28;20538;-75
2024/01/11 10:12:40;;;;;;;37.07;19.43;;;1.90;67.40;-0.60;97278.00;;;;5071460;28;20600;-75
2024/01/11 10:15:09;;;;;;;40.37;21.53;;;1.90;67.40;-0.60;97277.00;;;;5071821;28;20443;-75
2024/01/11 10:17:37;;;;;;;40.00;20.57;;;1.90;67.40;-0.60;97267.00;;;;5071942;28;20836;-75
2024/01/11 10:20:10;;;;;;;36.17;20.30;;;1.90;67.60;-0.60;97273.00;;;;5071314;28;20474;-75
2024/01/11 10:22:42;;;;;;;41.83;20.57;;;1.90;67.60;-0.60;97284.00;;;;5069525;28;20461;-75
2024/01/11 10:25:12;;;;;;;38.57;21.60;;;1.90;67.50;-0.50;97267.00;;;;5070817;28;20450;-76
2024/01/11 10:27:42;;;;;;;36.13;20.47;;;1.90;67.30;-0.50;97260.00;;;;5071349;28;20450;-77
2024/01/11 10:30:12;;;;;;;40.23;21.33;;;2.00;67.60;-0.40;97267.00;;;;5070498;28;20541;-77
2024/01/11 10:32:40;;;;;;;38.57;20.30;;;2.00;68.00;-0.30;97274.00;;;;5071623;28;20548;-77
2024/01/11 10:35:08;;;;;;;40.93;22.07;;;2.00;68.20;-0.20;97263.00;;;;5071352;28;20435;-75
2024/01/11 10:37:35;;;;;;;39.90;21.27;;;2.10;68.20;-0.20;97264.00;;;;5071387;28;20450;-75
2024/01/11 10:40:10;;;;;;;41.03;22.33;;;2.10;68.20;-0.10;97257.00;;;;5071048;28;20480;-74
2024/01/11 10:42:42;;;;;;;43.10;22.20;;;2.20;68.40;0.00;97263.00;;;;5064941;28;20445;-76
2024/01/11 10:45:17;;;;;;;41.43;22.77;;;2.20;68.50;0.10;97271.00;;;;5070950;28;20477;-75
2024/01/11 10:47:56;;;;;;;39.73;21.80;;;2.30;68.40;0.20;97257.00;;;;5072300;28;20658;-75
2024/01/11 10:50:26;;;;;;;40.70;21.37;;;2.40;68.20;0.30;97260.00;;;;5070948;28;20469;-75